createdAt,value
2018-07-01T00:01:20.241Z,9.87
2018-07-01T00:06:03.724Z,9.40
2018-07-01T00:10:50.687Z,9.63
2018-07-01T00:15:34.211Z,8.00
2018-07-01T00:20:18.754Z,8.70
2018-07-01T00:25:02.294Z,8.27
2018-07-01T00:29:46.869Z,8.47
2018-07-01T00:34:30.525Z,8.73
2018-07-01T00:39:13.939Z,9.13
2018-07-01T00:43:58.642Z,10.60
2018-07-01T00:48:42.158Z,9.43
2018-07-01T00:53:26.920Z,10.93
2018-07-01T00:58:10.551Z,10.57
2018-07-01T01:02:54.885Z,8.93
2018-07-01T01:07:38.409Z,10.40
2018-07-01T01:12:23.060Z,9.93
2018-07-01T01:17:06.634Z,9.07
2018-07-01T01:21:53.908Z,8.40
2018-07-01T01:26:37.408Z,10.73
2018-07-01T01:31:24.377Z,8.53
2018-07-01T01:36:07.847Z,10.23
2018-07-01T01:41:08.877Z,11.30
2018-07-01T01:45:57.417Z,11.10
2018-07-01T01:50:59.370Z,9.80
2018-07-01T01:55:49.187Z,10.67
2018-07-01T02:00:38.209Z,10.43
2018-07-01T02:05:47.278Z,9.90
2018-07-01T02:10:35.909Z,12.10
2018-07-01T02:15:24.467Z,9.40
2018-07-01T02:20:10.284Z,10.27
2018-07-01T02:24:54.977Z,9.80
2018-07-01T02:29:41.552Z,9.50
2018-07-01T02:34:25.085Z,9.93
2018-07-01T02:39:10.327Z,10.03
2018-07-01T02:43:53.938Z,8.60
2018-07-01T02:48:37.344Z,7.37
2018-07-01T02:53:22.125Z,7.87
2018-07-01T02:58:05.608Z,7.27
2018-07-01T03:02:52.810Z,9.43
2018-07-01T03:07:36.414Z,12.80
2018-07-01T03:12:20.097Z,7.60
2018-07-01T03:17:03.724Z,8.50
2018-07-01T03:21:48.349Z,8.63
2018-07-01T03:26:32.230Z,10.23
2018-07-01T03:31:16.762Z,8.63
2018-07-01T03:36:00.054Z,9.90
2018-07-01T03:40:44.548Z,9.23
2018-07-01T03:45:28.124Z,8.87
2018-07-01T03:50:12.841Z,11.13
2018-07-01T03:54:56.317Z,10.33
2018-07-01T03:59:43.419Z,11.17
2018-07-01T04:04:26.968Z,8.03
2018-07-01T04:09:20.138Z,9.93
2018-07-01T04:14:15.332Z,6.40
2018-07-01T04:19:04.480Z,10.83
2018-07-01T04:23:59.044Z,10.50
2018-07-01T04:29:00.942Z,6.70
2018-07-01T04:33:56.857Z,5.90
2018-07-01T04:38:40.533Z,6.70
2018-07-01T04:43:24.182Z,15.10
2018-07-01T04:48:07.539Z,6.07
2018-07-01T04:52:51.035Z,8.03
2018-07-01T04:57:34.647Z,12.00
2018-07-01T05:02:18.566Z,7.00
2018-07-01T05:07:02.152Z,8.83
2018-07-01T05:11:49.144Z,8.77
2018-07-01T05:16:32.909Z,8.57
2018-07-01T05:21:19.513Z,8.63
2018-07-01T05:26:03.116Z,11.07
2018-07-01T05:30:50.485Z,7.37
2018-07-01T05:35:34.099Z,8.00
2018-07-01T05:40:33.058Z,2.73
2018-07-01T05:45:20.193Z,5.43
2018-07-01T05:50:07.126Z,5.03
2018-07-01T05:54:50.553Z,5.00
2018-07-01T05:59:37.877Z,2.90
2018-07-01T06:04:22.061Z,3.17
2018-07-01T06:09:10.261Z,5.97
2018-07-01T06:13:53.809Z,4.73
2018-07-01T06:18:40.890Z,1.57
2018-07-01T06:23:24.408Z,3.70
2018-07-01T06:28:08.963Z,2.43
2018-07-01T06:32:53.710Z,6.47
2018-07-01T06:37:37.232Z,5.17
2018-07-01T06:42:20.954Z,7.20
2018-07-01T06:47:04.553Z,2.53
2018-07-01T06:51:51.227Z,4.77
2018-07-01T06:56:34.861Z,3.07
2018-07-01T07:01:22.108Z,4.53
2018-07-01T07:06:05.720Z,5.23
2018-07-01T07:10:53.182Z,6.50
2018-07-01T07:15:36.725Z,2.50
2018-07-01T07:20:21.249Z,2.10
2018-07-01T07:25:04.855Z,5.00
2018-07-01T07:29:51.565Z,2.87
2018-07-01T07:34:34.985Z,2.97
2018-07-01T07:39:22.266Z,3.03
2018-07-01T07:44:05.841Z,3.27
2018-07-01T07:48:49.388Z,3.50
2018-07-01T07:53:32.771Z,2.00
2018-07-01T07:58:17.609Z,2.73
2018-07-01T08:03:02.284Z,3.20
2018-07-01T08:07:45.732Z,2.83
2018-07-01T08:12:32.922Z,2.87
2018-07-01T08:17:16.448Z,5.10
2018-07-01T08:22:01.011Z,5.80
2018-07-01T08:26:44.501Z,3.20
2018-07-01T08:31:31.293Z,2.70
2018-07-01T08:36:14.958Z,3.30
2018-07-01T08:41:01.825Z,3.23
2018-07-01T08:45:45.325Z,3.57
2018-07-01T08:50:29.859Z,4.57
2018-07-01T08:55:13.389Z,4.93
2018-07-01T09:00:00.403Z,6.47
2018-07-01T09:04:43.991Z,5.37
2018-07-01T09:09:28.904Z,4.20
2018-07-01T09:14:12.389Z,5.97
2018-07-01T09:18:59.850Z,6.93
2018-07-01T09:23:43.372Z,5.00
2018-07-01T09:28:28.174Z,4.87
2018-07-01T09:33:11.599Z,5.37
2018-07-01T09:37:55.122Z,5.73
2018-07-01T09:42:42.038Z,6.67
2018-07-01T09:47:25.664Z,3.80
2018-07-01T09:52:12.921Z,4.93
2018-07-01T09:56:56.477Z,4.77
2018-07-01T10:01:43.893Z,5.23
2018-07-01T10:06:28.131Z,4.33
2018-07-01T10:11:14.713Z,3.50
2018-07-01T10:15:58.402Z,6.20
2018-07-01T10:20:45.324Z,4.10
2018-07-01T10:25:28.876Z,4.40
2018-07-01T10:30:16.293Z,3.40
2018-07-01T10:34:59.824Z,6.07
2018-07-01T10:39:44.494Z,4.50
2018-07-01T10:44:28.042Z,3.67
2018-07-01T10:49:13.606Z,3.67
2018-07-01T10:53:57.165Z,3.33
2018-07-01T10:58:40.871Z,5.37
2018-07-01T11:03:24.400Z,3.37
2018-07-01T11:08:09.210Z,3.50
2018-07-01T11:12:52.726Z,3.63
2018-07-01T11:17:36.257Z,3.47
2018-07-01T11:22:23.526Z,3.30
2018-07-01T11:27:07.275Z,3.60
2018-07-01T11:32:09.466Z,3.57
2018-07-01T11:36:53.028Z,3.53
2018-07-01T11:41:37.895Z,3.70
2018-07-01T11:46:21.398Z,5.63
2018-07-01T11:51:06.114Z,3.90
2018-07-01T11:55:49.768Z,3.17
2018-07-01T12:00:34.364Z,3.70
2018-07-01T12:05:17.788Z,3.23
2018-07-01T12:10:05.619Z,6.00
2018-07-01T12:14:49.272Z,3.70
2018-07-01T12:19:33.890Z,5.97
2018-07-01T12:24:17.473Z,3.80
2018-07-01T12:29:01.292Z,3.30
2018-07-01T12:33:44.796Z,6.43
2018-07-01T12:38:33.148Z,5.00
2018-07-01T12:43:16.722Z,4.93
2018-07-01T12:48:03.445Z,3.77
2018-07-01T12:52:47.011Z,4.00
2018-07-01T12:57:30.535Z,3.83
2018-07-01T13:02:13.873Z,4.43
2018-07-01T13:06:57.425Z,3.97
2018-07-01T13:11:44.589Z,3.73
2018-07-01T13:16:28.126Z,6.60
2018-07-01T13:21:12.781Z,6.70
2018-07-01T13:25:56.349Z,4.53
2018-07-01T13:30:41.029Z,6.33
2018-07-01T13:35:24.606Z,3.20
2018-07-01T13:40:11.569Z,3.90
2018-07-01T13:44:55.003Z,5.10
2018-07-01T13:49:46.352Z,5.23
2018-07-01T13:54:30.541Z,5.63
2018-07-01T13:59:15.214Z,3.67
2018-07-01T14:03:58.809Z,3.43
2018-07-01T14:08:45.462Z,3.77
2018-07-01T14:13:29.456Z,4.03
2018-07-01T14:18:13.677Z,3.70
2018-07-01T14:22:57.256Z,4.30
2018-07-01T14:27:44.516Z,4.87
2018-07-01T14:32:28.949Z,7.77
2018-07-01T14:37:12.694Z,8.33
2018-07-01T14:41:56.325Z,5.67
2018-07-01T14:46:40.443Z,3.67
2018-07-01T14:51:25.042Z,4.80
2018-07-01T14:56:08.587Z,3.60
2018-07-01T15:00:55.699Z,3.03
2018-07-01T15:05:39.763Z,3.90
2018-07-01T15:10:26.337Z,3.43
2018-07-01T15:15:09.793Z,4.00
2018-07-01T15:19:54.409Z,4.10
2018-07-01T15:24:37.928Z,4.20
2018-07-01T15:29:21.628Z,4.70
2018-07-01T15:34:05.297Z,3.93
2018-07-01T15:38:48.968Z,4.00
2018-07-01T15:43:32.502Z,4.33
2018-07-01T15:48:17.370Z,3.67
2018-07-01T15:53:00.927Z,4.93
2018-07-01T15:57:50.179Z,3.33
2018-07-01T16:02:33.896Z,5.23
2018-07-01T16:07:21.466Z,4.40
2018-07-01T16:12:04.946Z,4.07
2018-07-01T16:16:48.476Z,4.73
2018-07-01T16:21:33.139Z,3.63
2018-07-01T16:26:22.713Z,4.10
2018-07-01T16:31:06.239Z,3.53
2018-07-01T16:35:49.947Z,4.50
2018-07-01T16:40:38.091Z,4.43
2018-07-01T16:45:21.629Z,4.93
2018-07-01T16:50:06.357Z,3.80
2018-07-01T16:54:49.870Z,4.20
2018-07-01T16:59:34.397Z,6.07
2018-07-01T17:04:17.847Z,4.50
2018-07-01T17:09:02.364Z,4.50
2018-07-01T17:13:45.977Z,7.10
2018-07-01T17:18:30.561Z,6.17
2018-07-01T17:23:14.091Z,6.67
2018-07-01T17:27:58.848Z,6.17
2018-07-01T17:32:47.599Z,6.93
2018-07-01T17:37:34.733Z,7.90
2018-07-01T17:42:18.393Z,5.70
2018-07-01T17:47:02.950Z,4.97
2018-07-01T17:51:46.705Z,5.33
2018-07-01T17:56:30.242Z,7.07
2018-07-01T18:01:18.161Z,6.53
2018-07-01T18:06:02.308Z,6.77
2018-07-01T18:10:48.022Z,12.50
2018-07-01T18:15:31.554Z,7.27
2018-07-01T18:20:16.147Z,11.27
2018-07-01T18:25:08.612Z,6.00
2018-07-01T18:29:45.137Z,13.83
2018-07-01T18:34:29.306Z,6.03
2018-07-01T18:39:16.770Z,7.83
2018-07-01T18:44:01.511Z,8.10
2018-07-01T18:48:45.230Z,7.13
2018-07-01T18:53:30.886Z,6.20
2018-07-01T18:58:14.642Z,6.23
2018-07-01T19:02:58.219Z,6.17
2018-07-01T19:07:47.139Z,5.73
2018-07-01T19:12:30.756Z,5.30
2018-07-01T19:17:21.913Z,6.37
2018-07-01T19:22:05.585Z,5.67
2018-07-01T19:26:50.719Z,5.93
2018-07-01T19:31:34.411Z,10.17
2018-07-01T19:36:18.075Z,3.73
2018-07-01T19:41:02.868Z,7.67
2018-07-01T19:45:47.260Z,5.23
2018-07-01T19:50:32.432Z,10.13
2018-07-01T19:55:20.487Z,6.37
2018-07-01T20:00:09.776Z,5.80
2018-07-01T20:04:54.367Z,4.97
2018-07-01T20:09:38.009Z,5.33
2018-07-01T20:14:22.995Z,6.10
2018-07-01T20:19:08.842Z,4.97
2018-07-01T20:23:54.589Z,5.07
2018-07-01T20:28:40.060Z,5.23
2018-07-01T20:33:24.415Z,3.00
2018-07-01T20:38:08.895Z,4.80
2018-07-01T20:42:53.238Z,6.03
2018-07-01T20:47:37.440Z,5.97
2018-07-01T20:52:21.161Z,6.40
2018-07-01T20:57:05.821Z,4.27
2018-07-01T21:01:49.267Z,5.80
2018-07-01T21:06:35.953Z,7.97
2018-07-01T21:11:19.522Z,4.90
2018-07-01T21:16:02.995Z,4.10
2018-07-01T21:20:55.682Z,5.43
2018-07-01T21:25:39.234Z,5.37
2018-07-01T21:30:23.931Z,6.77
2018-07-01T21:35:07.535Z,5.13
2018-07-01T21:39:52.218Z,5.20
2018-07-01T21:44:35.660Z,5.47
2018-07-01T21:49:20.351Z,7.60
2018-07-01T21:54:03.988Z,5.67
2018-07-01T21:58:47.613Z,10.03
2018-07-01T22:03:31.210Z,6.80
2018-07-01T22:08:17.898Z,10.80
2018-07-01T22:13:01.378Z,5.33
2018-07-01T22:17:45.057Z,7.77
2018-07-01T22:22:28.677Z,8.40
2018-07-01T22:27:12.356Z,6.50
2018-07-01T22:31:55.882Z,6.90
2018-07-01T22:36:41.605Z,7.10
2018-07-01T22:41:25.238Z,7.13
2018-07-01T22:46:08.709Z,10.77
2018-07-01T22:50:55.977Z,7.63
2018-07-01T22:55:39.488Z,7.73
2018-07-01T23:00:26.025Z,8.83
2018-07-01T23:05:09.340Z,7.43
2018-07-01T23:09:56.422Z,8.53
2018-07-01T23:14:39.954Z,10.90
2018-07-01T23:19:27.281Z,7.70
2018-07-01T23:24:10.590Z,6.80
2018-07-01T23:28:58.200Z,7.77
2018-07-01T23:33:41.533Z,7.80
2018-07-01T23:38:25.292Z,7.80
2018-07-01T23:43:08.764Z,4.77
2018-07-01T23:47:52.521Z,5.20
2018-07-01T23:52:36.049Z,6.53
2018-07-01T23:57:19.887Z,6.20
